首页
METAR-TAF:

METAR-TAF

机场 :

上海 / 浦东, 中华人民共和国

上海浦东国际机场

纬度: 31-07N, 经度: 121-46E, 海拔: 4米

当前天气观测

该预报发布于24分钟前的03:00 UTC
风速6节,风向东转东北,在之间变化
温度 8°C
湿度 76%
气压 1024 hPa
能見度: 8000
少量云层高于1000英尺
阴天层高于2300英尺

METAR: ZSPD 200300Z 06003MPS 350V080 8000 FEW010 OVC023 08/04 Q1024 NOSIG

时间: 11:24 (03:24 UTC)

预报

该预报发布于6小时和13分钟前的21:11 UTC
预报有效从20日的 00点(UTC)到 20日的 24点(UTC)
风速6节,风向东北
能見度: 5000
多云层高于1000英尺
轻雾

TAF: ZSPD 192111Z 2000/2024 04003MPS 5000 BR BKN010 TX10/2006Z TN07/2021Z

超过4000个机场的气象观测和天气预报(METAR&TAF报告)。

可查询的气象台以黄色和红色小点在地图上表示。

将鼠标移到小点上方,可查看气象台名称。

然后点击查看天气观测和预报。

如需切换地图:点击带黑十字的绿色按钮放大地图;点击带横线的绿色按钮缩小地图;或者点击绿色箭头查看邻近地区的地图。


METAR-TAF: